EJA209 KBKL-KDCA
Flight info
| Callsign | EJA209 |
|---|---|
| Flight time | 0h 46m |
| Altitude | 31000 |
| Route | AHMET5 EWC ALWYZ FRDMM6 |
| Aircraft | CL60/M-SADE3FGHIJ3J4J7P2RWXY/HB1D1 |
Departure
| Time | 2026-05-05 21:32 |
|---|---|
| Airport | Burke Lakefront Airport (KBKL) |
Arrival
| Time | 2026-05-05 22:18 |
|---|---|
| Airport | Ronald Reagan Washington National Airport (KDCA) |
| Time | Latitude | Longitude | Altitude | Speed | Heading |
|---|---|---|---|---|---|
| 2026-05-05 21:01 | 41.51234 | -81.68797 | 589 ft | 0 kts | 53° |
| 2026-05-05 21:26 | 41.51246 | -81.68778 | 589 ft | 4 kts | 40° |
| 2026-05-05 21:26 | 41.51286 | -81.68765 | 588 ft | 6 kts | 0° |
| 2026-05-05 21:27 | 41.51347 | -81.68764 | 588 ft | 10 kts | 5° |
| 2026-05-05 21:27 | 41.51407 | -81.68729 | 588 ft | 10 kts | 49° |
| 2026-05-05 21:27 | 41.51453 | -81.68631 | 588 ft | 14 kts | 57° |
| 2026-05-05 21:27 | 41.51508 | -81.68517 | 588 ft | 15 kts | 58° |
| 2026-05-05 21:28 | 41.51570 | -81.68385 | 589 ft | 19 kts | 57° |
| 2026-05-05 21:28 | 41.51646 | -81.68222 | 589 ft | 22 kts | 57° |
| 2026-05-05 21:28 | 41.51733 | -81.68036 | 589 ft | 23 kts | 58° |
| 2026-05-05 21:28 | 41.51817 | -81.67859 | 589 ft | 21 kts | 57° |
| 2026-05-05 21:29 | 41.51892 | -81.67700 | 589 ft | 19 kts | 57° |
| 2026-05-05 21:29 | 41.51958 | -81.67558 | 589 ft | 17 kts | 58° |
| 2026-05-05 21:29 | 41.52018 | -81.67433 | 589 ft | 14 kts | 58° |
| 2026-05-05 21:29 | 41.52070 | -81.67324 | 588 ft | 13 kts | 58° |
| 2026-05-05 21:30 | 41.52113 | -81.67228 | 588 ft | 11 kts | 56° |
| 2026-05-05 21:30 | 41.52152 | -81.67149 | 589 ft | 9 kts | 58° |
| 2026-05-05 21:30 | 41.52184 | -81.67078 | 589 ft | 5 kts | 53° |
| 2026-05-05 21:30 | 41.52224 | -81.67057 | 589 ft | 5 kts | 348° |
| 2026-05-05 21:31 | 41.52267 | -81.67087 | 589 ft | 8 kts | 327° |
| 2026-05-05 21:31 | 41.52326 | -81.67138 | 589 ft | 9 kts | 327° |
| 2026-05-05 21:31 | 41.52363 | -81.67176 | 589 ft | 5 kts | 292° |
| 2026-05-05 21:31 | 41.52347 | -81.67224 | 589 ft | 7 kts | 236° |
| 2026-05-05 21:32 | 41.52100 | -81.67741 | 588 ft | 124 kts | 239° |
| 2026-05-05 21:32 | 41.51501 | -81.68977 | 992 ft | 180 kts | 238° |
| 2026-05-05 21:32 | 41.50782 | -81.70435 | 1804 ft | 207 kts | 248° |
| 2026-05-05 21:32 | 41.50640 | -81.72342 | 1738 ft | 208 kts | 288° |
| 2026-05-05 21:33 | 41.51423 | -81.73853 | 1710 ft | 195 kts | 318° |
| 2026-05-05 21:33 | 41.52611 | -81.74754 | 1521 ft | 199 kts | 341° |
| 2026-05-05 21:33 | 41.53966 | -81.74933 | 1661 ft | 201 kts | 6° |
| 2026-05-05 21:33 | 41.55242 | -81.74150 | 1722 ft | 206 kts | 41° |
| 2026-05-05 21:34 | 41.56009 | -81.72524 | 1975 ft | 214 kts | 71° |
| 2026-05-05 21:34 | 41.56130 | -81.70561 | 2338 ft | 216 kts | 98° |
| 2026-05-05 21:34 | 41.55621 | -81.68682 | 2798 ft | 219 kts | 126° |
| 2026-05-05 21:34 | 41.54554 | -81.67269 | 3268 ft | 218 kts | 152° |
| 2026-05-05 21:35 | 41.53248 | -81.66266 | 3775 ft | 218 kts | 155° |
| 2026-05-05 21:35 | 41.51913 | -81.65260 | 4305 ft | 227 kts | 156° |
| 2026-05-05 21:35 | 41.50453 | -81.64167 | 4982 ft | 256 kts | 156° |
| 2026-05-05 21:35 | 41.48868 | -81.62971 | 5842 ft | 269 kts | 157° |
| 2026-05-05 21:36 | 41.47247 | -81.61741 | 6773 ft | 272 kts | 157° |
| 2026-05-05 21:36 | 41.45614 | -81.60499 | 7727 ft | 273 kts | 158° |
| 2026-05-05 21:36 | 41.43970 | -81.59251 | 8685 ft | 276 kts | 158° |
| 2026-05-05 21:36 | 41.42313 | -81.57994 | 9653 ft | 279 kts | 158° |
| 2026-05-05 21:37 | 41.40624 | -81.56715 | 10643 ft | 286 kts | 159° |
| 2026-05-05 21:37 | 41.38844 | -81.55380 | 11598 ft | 307 kts | 158° |
| 2026-05-05 21:37 | 41.36912 | -81.53932 | 12394 ft | 329 kts | 158° |
| 2026-05-05 21:37 | 41.34919 | -81.52424 | 13503 ft | 337 kts | 158° |
| 2026-05-05 21:38 | 41.32850 | -81.50861 | 14520 ft | 348 kts | 157° |
| 2026-05-05 21:38 | 41.30746 | -81.49265 | 15600 ft | 353 kts | 158° |
| 2026-05-05 21:38 | 41.28615 | -81.47656 | 16581 ft | 360 kts | 157° |
| 2026-05-05 21:38 | 41.26440 | -81.46011 | 17573 ft | 365 kts | 157° |
| 2026-05-05 21:39 | 41.24197 | -81.44313 | 18609 ft | 370 kts | 156° |
| 2026-05-05 21:39 | 41.22124 | -81.42327 | 19463 ft | 385 kts | 143° |
| 2026-05-05 21:39 | 41.20391 | -81.39553 | 20310 ft | 403 kts | 127° |
| 2026-05-05 21:39 | 41.19314 | -81.36071 | 21143 ft | 419 kts | 108° |
| 2026-05-05 21:40 | 41.18680 | -81.32268 | 21927 ft | 427 kts | 106° |
| 2026-05-05 21:40 | 41.18051 | -81.28419 | 22696 ft | 433 kts | 106° |
| 2026-05-05 21:40 | 41.17399 | -81.24464 | 23445 ft | 439 kts | 105° |
| 2026-05-05 21:40 | 41.16744 | -81.20497 | 24195 ft | 445 kts | 105° |
| 2026-05-05 21:41 | 41.16077 | -81.16466 | 24880 ft | 451 kts | 105° |
| 2026-05-05 21:41 | 41.15403 | -81.12400 | 25563 ft | 457 kts | 105° |
| 2026-05-05 21:41 | 41.14718 | -81.08275 | 26242 ft | 462 kts | 105° |
| 2026-05-05 21:41 | 41.14023 | -81.04100 | 26816 ft | 469 kts | 105° |
| 2026-05-05 21:42 | 41.13316 | -80.99864 | 27429 ft | 474 kts | 105° |
| 2026-05-05 21:42 | 41.12590 | -80.95524 | 27979 ft | 480 kts | 105° |
| 2026-05-05 21:42 | 41.11873 | -80.91246 | 28510 ft | 485 kts | 105° |
| 2026-05-05 21:42 | 41.11141 | -80.86886 | 29086 ft | 488 kts | 105° |
| 2026-05-05 21:43 | 41.10400 | -80.82488 | 29614 ft | 493 kts | 105° |
| 2026-05-05 21:43 | 41.09654 | -80.78065 | 30216 ft | 495 kts | 105° |
| 2026-05-05 21:43 | 41.08891 | -80.73564 | 30683 ft | 501 kts | 105° |
| 2026-05-05 21:43 | 41.08122 | -80.69051 | 30830 ft | 509 kts | 105° |
| 2026-05-05 21:44 | 41.06989 | -80.64635 | 30853 ft | 506 kts | 119° |
| 2026-05-05 21:44 | 41.05166 | -80.60723 | 30841 ft | 496 kts | 131° |
| 2026-05-05 21:44 | 41.01034 | -80.53496 | 30840 ft | 490 kts | 133° |
| 2026-05-05 21:45 | 40.96937 | -80.46341 | 30852 ft | 488 kts | 131° |
| 2026-05-05 21:45 | 40.92826 | -80.39181 | 30825 ft | 488 kts | 131° |
| 2026-05-05 21:46 | 40.88670 | -80.31943 | 30837 ft | 489 kts | 132° |
| 2026-05-05 21:46 | 40.84617 | -80.24898 | 30845 ft | 486 kts | 133° |
| 2026-05-05 21:47 | 40.80322 | -80.18003 | 30838 ft | 482 kts | 138° |
| 2026-05-05 21:47 | 40.75669 | -80.11299 | 30841 ft | 482 kts | 138° |
| 2026-05-05 21:48 | 40.71235 | -80.04913 | 30852 ft | 483 kts | 137° |
| 2026-05-05 21:48 | 40.66671 | -79.98354 | 30854 ft | 484 kts | 138° |
| 2026-05-05 21:49 | 40.62080 | -79.91765 | 30849 ft | 484 kts | 137° |
| 2026-05-05 21:49 | 40.57553 | -79.85280 | 30852 ft | 483 kts | 137° |
| 2026-05-05 21:50 | 40.52992 | -79.78759 | 30867 ft | 483 kts | 137° |
| 2026-05-05 21:50 | 40.48394 | -79.72200 | 30855 ft | 485 kts | 137° |
| 2026-05-05 21:51 | 40.43819 | -79.65686 | 30868 ft | 485 kts | 137° |
| 2026-05-05 21:51 | 40.39224 | -79.59157 | 30859 ft | 485 kts | 137° |
| 2026-05-05 21:52 | 40.32341 | -79.49406 | 30877 ft | 485 kts | 137° |
| 2026-05-05 21:53 | 40.27727 | -79.42883 | 30900 ft | 485 kts | 136° |
| 2026-05-05 21:53 | 40.23138 | -79.36410 | 30896 ft | 485 kts | 136° |
| 2026-05-05 21:54 | 40.18556 | -79.29961 | 30897 ft | 484 kts | 137° |
| 2026-05-05 21:54 | 40.13960 | -79.23507 | 30890 ft | 484 kts | 137° |
| 2026-05-05 21:55 | 40.09362 | -79.17063 | 30906 ft | 484 kts | 137° |
| 2026-05-05 21:55 | 40.04741 | -79.10600 | 30899 ft | 483 kts | 136° |
| 2026-05-05 21:56 | 40.00145 | -79.04186 | 30906 ft | 483 kts | 136° |
| 2026-05-05 21:56 | 39.95532 | -78.97762 | 30917 ft | 482 kts | 137° |
| 2026-05-05 21:57 | 39.90925 | -78.91360 | 30902 ft | 483 kts | 136° |
| 2026-05-05 21:57 | 39.86307 | -78.84960 | 30895 ft | 494 kts | 136° |
| 2026-05-05 21:58 | 39.81526 | -78.78348 | 30891 ft | 504 kts | 136° |
| 2026-05-05 21:58 | 39.76678 | -78.71654 | 30883 ft | 507 kts | 136° |
| 2026-05-05 21:58 | 39.74231 | -78.68281 | 30640 ft | 511 kts | 136° |
| 2026-05-05 21:59 | 39.71802 | -78.64937 | 30091 ft | 510 kts | 136° |
| 2026-05-05 21:59 | 39.69384 | -78.61607 | 29477 ft | 503 kts | 136° |
| 2026-05-05 21:59 | 39.66992 | -78.58317 | 28820 ft | 495 kts | 136° |
| 2026-05-05 21:59 | 39.64617 | -78.55056 | 28173 ft | 488 kts | 136° |
| 2026-05-05 22:00 | 39.62305 | -78.51883 | 27534 ft | 481 kts | 137° |
| 2026-05-05 22:00 | 39.60016 | -78.48745 | 26894 ft | 473 kts | 137° |
| 2026-05-05 22:00 | 39.57765 | -78.45663 | 26270 ft | 467 kts | 137° |
| 2026-05-05 22:00 | 39.55678 | -78.42811 | 25700 ft | 461 kts | 137° |
| 2026-05-05 22:01 | 39.53483 | -78.39813 | 25072 ft | 454 kts | 137° |
| 2026-05-05 22:01 | 39.51368 | -78.36926 | 24486 ft | 448 kts | 137° |
| 2026-05-05 22:01 | 39.49235 | -78.34019 | 23901 ft | 442 kts | 137° |
| 2026-05-05 22:01 | 39.47119 | -78.31135 | 23311 ft | 436 kts | 138° |
| 2026-05-05 22:02 | 39.45033 | -78.28295 | 22735 ft | 431 kts | 138° |
| 2026-05-05 22:02 | 39.42967 | -78.25486 | 22159 ft | 427 kts | 138° |
| 2026-05-05 22:02 | 39.40912 | -78.22697 | 21594 ft | 423 kts | 138° |
| 2026-05-05 22:02 | 39.38887 | -78.19949 | 21026 ft | 419 kts | 138° |
| 2026-05-05 22:03 | 39.36885 | -78.17236 | 20472 ft | 415 kts | 138° |
| 2026-05-05 22:03 | 39.34894 | -78.14540 | 19922 ft | 412 kts | 138° |
| 2026-05-05 22:03 | 39.32900 | -78.11841 | 19374 ft | 409 kts | 138° |
| 2026-05-05 22:03 | 39.30944 | -78.09197 | 18830 ft | 406 kts | 138° |
| 2026-05-05 22:04 | 39.28985 | -78.06552 | 18287 ft | 403 kts | 138° |
| 2026-05-05 22:04 | 39.27064 | -78.03959 | 17908 ft | 398 kts | 138° |
| 2026-05-05 22:04 | 39.25148 | -78.01376 | 17320 ft | 399 kts | 138° |
| 2026-05-05 22:04 | 39.23246 | -77.98813 | 16812 ft | 392 kts | 138° |
| 2026-05-05 22:05 | 39.21370 | -77.96286 | 16290 ft | 387 kts | 138° |
| 2026-05-05 22:05 | 39.19525 | -77.93803 | 15784 ft | 382 kts | 138° |
| 2026-05-05 22:05 | 39.17697 | -77.91346 | 15298 ft | 377 kts | 138° |
| 2026-05-05 22:05 | 39.15898 | -77.88929 | 14791 ft | 371 kts | 138° |
| 2026-05-05 22:06 | 39.14114 | -77.86534 | 14302 ft | 366 kts | 138° |
| 2026-05-05 22:06 | 39.12367 | -77.84191 | 13818 ft | 359 kts | 138° |
| 2026-05-05 22:06 | 39.10650 | -77.81890 | 13325 ft | 354 kts | 138° |
| 2026-05-05 22:06 | 39.08950 | -77.79613 | 12883 ft | 347 kts | 138° |
| 2026-05-05 22:07 | 39.07303 | -77.77408 | 12423 ft | 341 kts | 138° |
| 2026-05-05 22:07 | 39.05674 | -77.75230 | 11973 ft | 334 kts | 138° |
| 2026-05-05 22:07 | 39.04077 | -77.73096 | 11539 ft | 328 kts | 138° |
| 2026-05-05 22:07 | 39.02505 | -77.70996 | 11114 ft | 322 kts | 139° |
| 2026-05-05 22:08 | 39.00962 | -77.68937 | 10660 ft | 316 kts | 139° |
| 2026-05-05 22:08 | 38.99463 | -77.66936 | 10276 ft | 306 kts | 138° |
| 2026-05-05 22:08 | 38.98186 | -77.64748 | 9880 ft | 308 kts | 121° |
| 2026-05-05 22:08 | 38.97371 | -77.62197 | 9481 ft | 307 kts | 114° |
| 2026-05-05 22:09 | 38.96628 | -77.59647 | 9127 ft | 302 kts | 114° |
| 2026-05-05 22:09 | 38.95885 | -77.57124 | 8756 ft | 300 kts | 115° |
| 2026-05-05 22:09 | 38.95155 | -77.54632 | 8400 ft | 296 kts | 114° |
| 2026-05-05 22:09 | 38.94759 | -77.52040 | 8068 ft | 296 kts | 93° |
| 2026-05-05 22:10 | 38.95086 | -77.49439 | 7994 ft | 299 kts | 73° |
| 2026-05-05 22:10 | 38.95875 | -77.46952 | 7986 ft | 298 kts | 68° |
| 2026-05-05 22:10 | 38.96675 | -77.44578 | 7996 ft | 280 kts | 68° |
| 2026-05-05 22:10 | 38.97425 | -77.42338 | 8004 ft | 264 kts | 68° |
| 2026-05-05 22:11 | 38.98135 | -77.40214 | 7997 ft | 255 kts | 68° |
| 2026-05-05 22:11 | 38.98827 | -77.38144 | 7903 ft | 249 kts | 68° |
| 2026-05-05 22:11 | 38.99515 | -77.36081 | 7558 ft | 252 kts | 68° |
| 2026-05-05 22:11 | 39.00207 | -77.34004 | 7237 ft | 253 kts | 69° |
| 2026-05-05 22:12 | 39.00925 | -77.31857 | 6909 ft | 253 kts | 69° |
| 2026-05-05 22:12 | 39.01612 | -77.29814 | 6640 ft | 252 kts | 69° |
| 2026-05-05 22:12 | 39.01987 | -77.27689 | 6087 ft | 254 kts | 101° |
| 2026-05-05 22:12 | 39.01639 | -77.25479 | 5668 ft | 249 kts | 111° |
| 2026-05-05 22:13 | 39.01197 | -77.23323 | 5247 ft | 253 kts | 112° |
| 2026-05-05 22:13 | 39.00652 | -77.21201 | 4932 ft | 243 kts | 118° |
| 2026-05-05 22:13 | 39.00059 | -77.19464 | 4799 ft | 221 kts | 124° |
| 2026-05-05 22:13 | 38.99303 | -77.17761 | 4441 ft | 211 kts | 131° |
| 2026-05-05 22:14 | 38.98374 | -77.16330 | 3949 ft | 203 kts | 147° |
| 2026-05-05 22:14 | 38.97309 | -77.15169 | 3443 ft | 201 kts | 148° |
| 2026-05-05 22:14 | 38.96239 | -77.14072 | 2915 ft | 187 kts | 150° |
| 2026-05-05 22:14 | 38.95279 | -77.13118 | 2690 ft | 160 kts | 152° |
| 2026-05-05 22:15 | 38.94435 | -77.12271 | 2398 ft | 150 kts | 154° |
| 2026-05-05 22:15 | 38.93630 | -77.11614 | 2204 ft | 128 kts | 160° |
| 2026-05-05 22:15 | 38.92864 | -77.11058 | 1858 ft | 128 kts | 164° |
| 2026-05-05 22:15 | 38.92092 | -77.10544 | 1675 ft | 121 kts | 160° |
| 2026-05-05 22:16 | 38.91367 | -77.09931 | 1493 ft | 127 kts | 152° |
| 2026-05-05 22:16 | 38.90771 | -77.09052 | 1357 ft | 134 kts | 129° |
| 2026-05-05 22:16 | 38.90382 | -77.07919 | 1104 ft | 138 kts | 122° |
| 2026-05-05 22:16 | 38.89959 | -77.06908 | 918 ft | 130 kts | 131° |
| 2026-05-05 22:17 | 38.89372 | -77.06007 | 744 ft | 125 kts | 148° |
| 2026-05-05 22:17 | 38.88708 | -77.05308 | 671 ft | 121 kts | 147° |
| 2026-05-05 22:17 | 38.88060 | -77.04603 | 474 ft | 119 kts | 151° |
| 2026-05-05 22:17 | 38.87377 | -77.04061 | 303 ft | 116 kts | 163° |
| 2026-05-05 22:18 | 38.86596 | -77.03918 | 175 ft | 111 kts | 182° |
| 2026-05-05 22:18 | 38.85842 | -77.03846 | 35 ft | 107 kts | 181° |
| 2026-05-05 22:18 | 38.85162 | -77.03784 | 26 ft | 83 kts | 177° |
| 2026-05-05 22:18 | 38.84809 | -77.03739 | 24 ft | 18 kts | 175° |
| 2026-05-05 22:19 | 38.84673 | -77.03728 | 24 ft | 20 kts | 174° |
| 2026-05-05 22:19 | 38.84536 | -77.03713 | 23 ft | 16 kts | 175° |
| 2026-05-05 22:19 | 38.84448 | -77.03710 | 22 ft | 10 kts | 192° |
| 2026-05-05 22:19 | 38.84391 | -77.03772 | 22 ft | 7 kts | 254° |
| 2026-05-05 22:20 | 38.84387 | -77.03829 | 22 ft | 3 kts | 270° |
| 2026-05-05 22:20 | 38.84387 | -77.03836 | 22 ft | 0 kts | 270° |
| 2026-05-05 22:20 | 38.84387 | -77.03838 | 22 ft | 1 kts | 276° |
| 2026-05-05 22:21 | 38.84456 | -77.03849 | 23 ft | 16 kts | 2° |
| 2026-05-05 22:21 | 38.84587 | -77.03860 | 24 ft | 20 kts | 355° |
| 2026-05-05 22:21 | 38.84677 | -77.03869 | 24 ft | 7 kts | 356° |
| 2026-05-05 22:21 | 38.84726 | -77.03886 | 25 ft | 7 kts | 309° |
| 2026-05-05 22:22 | 38.84745 | -77.03931 | 25 ft | 4 kts | 295° |
| 2026-05-05 22:22 | 38.84754 | -77.03961 | 24 ft | 3 kts | 269° |
| 2026-05-05 22:22 | 38.84725 | -77.03983 | 24 ft | 7 kts | 203° |
| 2026-05-05 22:22 | 38.84666 | -77.04018 | 24 ft | 10 kts | 204° |
| 2026-05-05 22:23 | 38.84600 | -77.04078 | 24 ft | 13 kts | 239° |
| 2026-05-05 22:23 | 38.84574 | -77.04205 | 25 ft | 15 kts | 257° |
| 2026-05-05 22:23 | 38.84575 | -77.04340 | 26 ft | 16 kts | 305° |
| 2026-05-05 22:23 | 38.84642 | -77.04422 | 27 ft | 10 kts | 294° |
| 2026-05-05 22:24 | 38.84610 | -77.04510 | 27 ft | 13 kts | 233° |
| 2026-05-05 22:24 | 38.84549 | -77.04615 | 27 ft | 16 kts | 230° |
| 2026-05-05 22:24 | 38.84497 | -77.04701 | 27 ft | 6 kts | 240° |
| 2026-05-05 22:24 | 38.84495 | -77.04765 | 26 ft | 6 kts | 302° |
| 2026-05-05 22:25 | 38.84519 | -77.04773 | 28 ft | 3 kts | 31° |
| 2026-05-05 22:25 | 38.84530 | -77.04759 | 28 ft | 0 kts | 55° |